createdAt,value
2024-03-01T00:00:06.541Z,26.52
2024-03-01T00:02:08.430Z,28.02
2024-03-01T00:04:10.305Z,28.35
2024-03-01T00:06:12.224Z,26.63
2024-03-01T00:08:14.738Z,28.33
2024-03-01T00:10:16.644Z,27.15
2024-03-01T00:12:18.454Z,29.52
2024-03-01T00:14:20.870Z,28.63
2024-03-01T00:16:22.718Z,28.92
2024-03-01T00:18:25.088Z,29.60
2024-03-01T00:20:26.934Z,28.85
2024-03-01T00:22:29.311Z,29.95
2024-03-01T00:24:31.056Z,30.50
2024-03-01T00:26:32.961Z,30.63
2024-03-01T00:28:35.729Z,30.15
2024-03-01T00:30:37.730Z,30.98
2024-03-01T00:32:39.650Z,31.83
2024-03-01T00:34:41.451Z,33.67
2024-03-01T00:36:43.264Z,31.08
2024-03-01T00:38:45.371Z,31.35
2024-03-01T00:40:47.278Z,30.77
2024-03-01T00:42:49.240Z,31.50
2024-03-01T00:44:51.148Z,31.60
2024-03-01T00:46:52.963Z,31.63
2024-03-01T00:48:56.064Z,32.45
2024-03-01T00:50:58.315Z,33.47
2024-03-01T00:53:00.325Z,30.98
2024-03-01T00:55:02.293Z,31.65
2024-03-01T00:57:04.062Z,31.63
2024-03-01T00:59:05.941Z,31.95
2024-03-01T01:01:08.397Z,33.53
2024-03-01T01:03:10.272Z,30.45
2024-03-01T01:05:12.745Z,30.63
2024-03-01T01:07:14.491Z,31.65
2024-03-01T01:09:16.379Z,30.23
2024-03-01T01:11:18.208Z,31.60
2024-03-01T01:13:19.935Z,30.35
2024-03-01T01:15:22.022Z,31.55
2024-03-01T01:17:23.860Z,29.83
2024-03-01T01:19:25.885Z,31.30
2024-03-01T01:21:28.000Z,29.27
2024-03-01T01:23:30.072Z,31.02
2024-03-01T01:25:32.168Z,30.40
2024-03-01T01:27:33.968Z,30.75
2024-03-01T01:29:35.953Z,29.98
2024-03-01T01:31:37.950Z,30.88
2024-03-01T01:33:39.721Z,29.45
2024-03-01T01:35:42.272Z,31.40
2024-03-01T01:37:44.748Z,32.58
2024-03-01T01:39:46.498Z,33.17
2024-03-01T01:41:48.429Z,32.38
2024-03-01T01:43:50.138Z,33.17
2024-03-01T01:45:52.442Z,33.75
2024-03-01T01:47:54.370Z,33.28
2024-03-01T01:49:56.254Z,33.17
2024-03-01T01:51:58.474Z,33.80
2024-03-01T01:54:00.632Z,31.42
2024-03-01T01:56:02.805Z,33.00
2024-03-01T01:58:05.065Z,32.17
2024-03-01T02:00:08.462Z,32.58
2024-03-01T02:02:10.369Z,31.30
2024-03-01T02:04:12.462Z,32.05
2024-03-01T02:06:14.493Z,31.70
2024-03-01T02:08:16.303Z,31.70
2024-03-01T02:10:18.752Z,33.35
2024-03-01T02:12:21.253Z,33.75
2024-03-01T02:14:23.121Z,33.33
2024-03-01T02:16:25.226Z,33.53
2024-03-01T02:18:27.383Z,34.35
2024-03-01T02:20:32.452Z,34.13
2024-03-01T02:22:34.900Z,33.13
2024-03-01T02:24:36.754Z,34.33
2024-03-01T02:26:38.684Z,33.25
2024-03-01T02:28:45.293Z,33.85
2024-03-01T02:30:47.372Z,34.38
2024-03-01T02:32:49.384Z,33.88
2024-03-01T02:34:51.174Z,35.97
2024-03-01T02:36:53.048Z,34.65
2024-03-01T02:38:55.022Z,33.88
2024-03-01T02:40:56.942Z,34.30
2024-03-01T02:42:58.773Z,33.35
2024-03-01T02:45:02.522Z,32.20
2024-03-01T02:47:04.374Z,34.30
2024-03-01T02:49:06.531Z,33.85
2024-03-01T02:51:08.518Z,34.10
2024-03-01T02:53:10.264Z,34.28
2024-03-01T02:55:12.228Z,33.85
2024-03-01T02:57:14.103Z,33.70
2024-03-01T02:59:15.835Z,34.97
2024-03-01T03:01:17.847Z,34.13
2024-03-01T03:03:19.659Z,34.03
2024-03-01T03:05:21.504Z,32.08
2024-03-01T03:07:23.461Z,32.17
2024-03-01T03:09:25.257Z,33.75
2024-03-01T03:11:27.022Z,34.58
2024-03-01T03:13:29.048Z,34.13
2024-03-01T03:15:30.893Z,32.95
2024-03-01T03:17:32.819Z,32.95
2024-03-01T03:19:35.868Z,32.65
2024-03-01T03:21:37.855Z,33.10
2024-03-01T03:23:40.063Z,32.53
2024-03-01T03:25:41.768Z,31.38
2024-03-01T03:27:44.619Z,32.03
2024-03-01T03:29:46.868Z,31.95
2024-03-01T03:31:48.577Z,30.48
2024-03-01T03:33:50.542Z,31.27
2024-03-01T03:35:52.361Z,31.98
2024-03-01T03:37:54.089Z,30.55
2024-03-01T03:39:55.954Z,30.65
2024-03-01T03:41:57.737Z,29.98
2024-03-01T03:43:59.532Z,29.67
2024-03-01T03:46:01.687Z,29.65
2024-03-01T03:48:05.842Z,29.00
2024-03-01T03:50:08.754Z,27.85
2024-03-01T03:52:10.702Z,26.73
2024-03-01T03:54:16.815Z,26.08
2024-03-01T03:56:18.799Z,24.95
2024-03-01T03:58:20.560Z,26.17
2024-03-01T04:00:22.424Z,30.02
2024-03-01T04:02:24.302Z,32.83
2024-03-01T04:04:26.604Z,33.25
2024-03-01T04:06:28.638Z,34.40
2024-03-01T04:08:30.678Z,34.00
2024-03-01T04:10:35.352Z,35.00
2024-03-01T04:12:37.724Z,34.95
2024-03-01T04:14:39.593Z,34.60
2024-03-01T04:16:41.404Z,33.90
2024-03-01T04:18:43.250Z,34.60
2024-03-01T04:20:45.554Z,48.10
2024-03-01T04:22:47.384Z,36.53
2024-03-01T04:24:49.765Z,32.92
2024-03-01T04:26:51.675Z,31.85
2024-03-01T04:28:53.614Z,32.67
2024-03-01T04:30:55.851Z,32.90
2024-03-01T04:32:57.933Z,33.47
2024-03-01T04:34:59.687Z,33.30
2024-03-01T04:37:01.567Z,33.90
2024-03-01T04:39:07.476Z,33.22
2024-03-01T04:41:16.990Z,33.65
2024-03-01T04:43:18.842Z,33.17
2024-03-01T04:45:20.924Z,32.42
2024-03-01T04:47:22.963Z,32.92
2024-03-01T04:49:24.981Z,33.70
2024-03-01T04:51:26.905Z,33.70
2024-03-01T04:53:29.236Z,31.65
2024-03-01T04:55:31.145Z,32.58
2024-03-01T04:57:33.259Z,32.92
2024-03-01T04:59:40.019Z,33.42
2024-03-01T05:01:43.159Z,31.25
2024-03-01T05:03:46.027Z,32.53
2024-03-01T05:05:48.094Z,34.13
2024-03-01T05:07:50.152Z,33.60
2024-03-01T05:09:52.074Z,33.00
2024-03-01T05:11:54.592Z,31.70
2024-03-01T05:13:56.449Z,31.48
2024-03-01T05:16:00.793Z,31.45
2024-03-01T05:18:02.648Z,30.90
2024-03-01T05:20:12.182Z,28.42
2024-03-01T05:22:14.733Z,30.67
2024-03-01T05:24:16.580Z,26.23
2024-03-01T05:26:19.124Z,26.45
2024-03-01T05:28:21.105Z,25.58
2024-03-01T05:30:36.070Z,29.70
2024-03-01T05:32:48.302Z,32.95
2024-03-01T05:34:50.159Z,31.73
2024-03-01T05:36:52.050Z,33.88
2024-03-01T05:38:54.114Z,33.60
2024-03-01T05:40:56.319Z,33.10
2024-03-01T05:42:58.796Z,35.03
2024-03-01T05:45:00.687Z,32.97
2024-03-01T05:47:03.043Z,31.58
2024-03-01T05:49:05.521Z,32.53
2024-03-01T05:51:07.384Z,30.02
2024-03-01T05:53:16.038Z,32.38
2024-03-01T05:55:18.823Z,32.83
2024-03-01T05:57:20.681Z,33.10
2024-03-01T05:59:24.030Z,33.10
2024-03-01T06:01:27.049Z,34.28
2024-03-01T06:03:29.218Z,34.92
2024-03-01T06:05:31.058Z,32.85
2024-03-01T06:07:32.881Z,31.92
2024-03-01T06:09:34.778Z,32.42
2024-03-01T06:11:36.661Z,30.65
2024-03-01T06:13:39.682Z,29.00
2024-03-01T06:15:41.738Z,32.15
2024-03-01T06:17:43.996Z,33.33
2024-03-01T06:19:45.848Z,33.17
2024-03-01T06:21:47.757Z,32.80
2024-03-01T06:23:50.064Z,32.72
2024-03-01T06:25:52.353Z,29.67
2024-03-01T06:27:54.133Z,31.23
2024-03-01T06:29:56.000Z,31.60
2024-03-01T06:31:58.111Z,28.00
2024-03-01T06:34:00.055Z,31.13
2024-03-01T06:36:02.480Z,31.33
2024-03-01T06:38:05.266Z,31.50
2024-03-01T06:40:11.122Z,32.70
2024-03-01T06:42:13.311Z,32.80
2024-03-01T06:44:15.617Z,33.50
2024-03-01T06:46:17.652Z,32.30
2024-03-01T06:48:22.346Z,33.40
2024-03-01T06:50:24.448Z,32.17
2024-03-01T06:52:27.276Z,33.05
2024-03-01T06:54:29.142Z,35.40
2024-03-01T06:56:30.912Z,32.50
2024-03-01T06:58:32.869Z,29.75
2024-03-01T07:00:34.864Z,27.90
2024-03-01T07:02:36.710Z,27.63
2024-03-01T07:04:38.613Z,26.15
2024-03-01T07:06:40.426Z,25.48
2024-03-01T07:08:43.557Z,24.05
2024-03-01T07:10:46.089Z,25.38
2024-03-01T07:12:48.512Z,24.77
2024-03-01T07:14:50.535Z,24.77
2024-03-01T07:16:52.284Z,24.20
2024-03-01T07:18:54.191Z,24.38
2024-03-01T07:20:56.078Z,24.05
2024-03-01T07:22:57.925Z,23.98
2024-03-01T07:24:59.713Z,24.30
2024-03-01T07:27:01.567Z,24.75
2024-03-01T07:29:03.705Z,24.38
2024-03-01T07:31:06.252Z,24.75
2024-03-01T07:33:08.219Z,25.15
2024-03-01T07:35:10.114Z,25.73
2024-03-01T07:37:13.476Z,25.20
2024-03-01T07:39:15.955Z,25.75
2024-03-01T07:41:19.888Z,24.67
2024-03-01T07:43:22.021Z,25.38
2024-03-01T07:45:23.956Z,25.83
2024-03-01T07:47:31.192Z,25.80
2024-03-01T07:49:34.388Z,26.65
2024-03-01T07:51:36.388Z,26.08
2024-03-01T07:53:38.992Z,28.00
2024-03-01T07:55:41.348Z,26.80
2024-03-01T07:57:43.238Z,26.23
2024-03-01T07:59:44.938Z,27.23
2024-03-01T08:01:47.250Z,27.13
2024-03-01T08:03:49.232Z,30.27
2024-03-01T08:05:51.305Z,30.10
2024-03-01T08:07:53.180Z,29.58
2024-03-01T08:09:55.754Z,28.48
2024-03-01T08:11:57.844Z,31.95
2024-03-01T08:14:01.372Z,31.90
2024-03-01T08:16:05.856Z,32.05
2024-03-01T08:18:19.679Z,32.25
2024-03-01T08:21:09.144Z,31.60
2024-03-01T08:23:12.904Z,30.45
2024-03-01T08:25:14.710Z,29.30
2024-03-01T08:27:21.157Z,30.50
2024-03-01T08:29:23.083Z,30.63
2024-03-01T08:31:30.150Z,29.30
2024-03-01T08:33:34.435Z,30.85
2024-03-01T08:35:37.395Z,30.42
2024-03-01T08:37:39.662Z,30.07
2024-03-01T08:39:42.095Z,28.15
2024-03-01T08:41:53.849Z,27.15
2024-03-01T08:43:58.396Z,27.20
2024-03-01T08:46:02.775Z,26.42
2024-03-01T08:48:13.546Z,26.60
2024-03-01T08:50:24.894Z,26.13
2024-03-01T08:52:39.753Z,25.48
2024-03-01T08:54:44.068Z,27.30
2024-03-01T08:56:54.403Z,25.52
2024-03-01T08:58:57.453Z,26.88
2024-03-01T09:00:59.465Z,27.23
2024-03-01T09:03:01.298Z,27.23
2024-03-01T09:05:03.076Z,28.55
2024-03-01T09:07:14.833Z,28.38
2024-03-01T09:09:22.979Z,27.60
2024-03-01T09:11:24.802Z,25.50
2024-03-01T09:13:27.819Z,22.58
2024-03-01T09:15:42.052Z,23.58
2024-03-01T09:19:51.131Z,24.33
2024-03-01T09:21:53.347Z,27.63
2024-03-01T09:23:55.342Z,26.45
2024-03-01T09:26:01.376Z,27.48
2024-03-01T09:28:03.680Z,26.80
2024-03-01T09:30:12.577Z,27.80
2024-03-01T09:32:17.616Z,27.02
2024-03-01T09:34:20.258Z,28.23
2024-03-01T09:36:22.663Z,29.00
2024-03-01T09:38:24.850Z,27.15
2024-03-01T09:41:02.572Z,29.75
2024-03-01T09:43:58.693Z,28.42
2024-03-01T09:46:19.974Z,29.05
2024-03-01T09:49:01.194Z,29.73
2024-03-01T09:51:32.166Z,28.58
2024-03-01T09:53:59.950Z,30.33
2024-03-01T09:56:27.382Z,29.38
2024-03-01T09:59:00.714Z,28.70
2024-03-01T10:01:16.222Z,28.23
2024-03-01T10:03:31.620Z,26.52
2024-03-01T10:06:09.635Z,26.92
2024-03-01T10:08:18.193Z,27.75
2024-03-01T10:11:10.086Z,25.95
2024-03-01T10:13:35.193Z,26.95
2024-03-01T10:16:01.375Z,27.70
2024-03-01T10:18:11.696Z,27.70
2024-03-01T10:20:13.441Z,26.88
2024-03-01T10:22:18.699Z,28.08
2024-03-01T10:24:49.643Z,26.33
2024-03-01T10:27:03.135Z,27.25
2024-03-01T10:29:27.251Z,26.55
2024-03-01T10:31:45.125Z,26.55
2024-03-01T10:33:54.615Z,27.52
2024-03-01T10:36:01.430Z,25.10
2024-03-01T10:38:09.151Z,23.40
2024-03-01T10:40:20.080Z,25.73
2024-03-01T10:42:26.836Z,25.25
2024-03-01T10:44:38.671Z,24.90
2024-03-01T10:46:58.521Z,24.08
2024-03-01T10:49:14.303Z,25.08
2024-03-01T10:51:17.248Z,24.35
2024-03-01T10:53:34.936Z,24.93
2024-03-01T10:55:39.403Z,25.42
2024-03-01T10:58:01.029Z,26.02
2024-03-01T11:00:13.962Z,26.52
2024-03-01T11:02:24.612Z,27.73
2024-03-01T11:04:45.951Z,26.75
2024-03-01T11:07:03.587Z,28.23
2024-03-01T11:09:14.434Z,27.35
2024-03-01T11:11:25.303Z,26.05
2024-03-01T11:13:29.328Z,26.85
2024-03-01T11:15:32.864Z,25.42
2024-03-01T11:17:36.917Z,26.25
2024-03-01T11:19:40.983Z,23.90
2024-03-01T11:21:49.561Z,24.35
2024-03-01T11:24:15.522Z,24.05
2024-03-01T11:26:27.446Z,24.88
2024-03-01T11:28:31.103Z,23.80
2024-03-01T11:30:43.964Z,24.70
2024-03-01T11:32:47.591Z,30.80
2024-03-01T11:35:13.083Z,26.92
2024-03-01T11:37:53.443Z,23.25
2024-03-01T11:40:07.373Z,22.85
2024-03-01T11:42:34.487Z,23.13
2024-03-01T11:44:47.156Z,24.20
2024-03-01T11:46:58.885Z,24.88
2024-03-01T11:49:06.669Z,25.63
2024-03-01T11:51:59.338Z,23.63
2024-03-01T11:54:16.618Z,25.00
2024-03-01T11:56:29.925Z,24.02
2024-03-01T11:58:38.848Z,24.50
2024-03-01T12:01:28.526Z,26.38
2024-03-01T12:04:04.171Z,23.77
2024-03-01T12:06:24.087Z,24.67
2024-03-01T12:08:44.641Z,23.90
2024-03-01T12:11:11.234Z,24.70
2024-03-01T12:13:18.351Z,25.35
2024-03-01T12:15:41.831Z,23.17
2024-03-01T12:18:17.728Z,22.92
2024-03-01T12:20:19.798Z,22.65
2024-03-01T12:22:32.800Z,22.48
2024-03-01T12:24:36.781Z,21.75
2024-03-01T12:26:53.510Z,21.50
2024-03-01T12:29:07.002Z,22.05
2024-03-01T12:31:53.343Z,20.60
2024-03-01T12:34:08.829Z,22.42
2024-03-01T12:36:36.553Z,21.27
2024-03-01T12:38:44.958Z,20.08
2024-03-01T12:41:11.366Z,20.83
2024-03-01T12:43:47.711Z,21.38
2024-03-01T12:46:01.049Z,20.48
2024-03-01T12:48:15.911Z,22.33
2024-03-01T12:50:24.815Z,21.27
2024-03-01T12:52:38.059Z,23.30
2024-03-01T12:54:52.099Z,23.23
2024-03-01T12:57:03.813Z,21.60
2024-03-01T12:59:35.928Z,22.05
2024-03-01T13:02:08.796Z,22.02
2024-03-01T13:04:30.253Z,21.17
2024-03-01T13:06:32.884Z,20.50
2024-03-01T13:08:47.367Z,52.28
2024-03-01T13:10:49.357Z,24.63
2024-03-01T13:12:57.411Z,20.10
2024-03-01T13:15:14.933Z,19.67
2024-03-01T13:17:29.416Z,20.63
2024-03-01T13:19:41.293Z,20.33
2024-03-01T13:21:51.015Z,23.15
2024-03-01T13:24:04.815Z,21.42
2024-03-01T13:26:24.446Z,20.00
2024-03-01T13:28:30.539Z,19.63
2024-03-01T13:30:37.586Z,19.45
2024-03-01T13:32:42.702Z,19.60
2024-03-01T13:34:50.847Z,20.48
2024-03-01T13:37:11.320Z,19.88
2024-03-01T13:39:27.471Z,19.33
2024-03-01T13:41:31.790Z,19.27
2024-03-01T13:43:41.406Z,20.38
2024-03-01T13:45:45.359Z,19.58
2024-03-01T13:50:23.736Z,19.00
2024-03-01T13:52:25.909Z,19.50
2024-03-01T13:54:33.716Z,21.02
2024-03-01T13:56:36.132Z,18.73
2024-03-01T13:58:38.001Z,18.83
2024-03-01T14:00:49.863Z,19.65
2024-03-01T14:02:55.038Z,19.98
2024-03-01T14:05:04.216Z,20.20
2024-03-01T14:07:14.760Z,19.85
2024-03-01T14:09:19.360Z,19.05
2024-03-01T14:11:21.605Z,18.75
2024-03-01T14:13:27.416Z,19.70
2024-03-01T14:15:29.442Z,20.45
2024-03-01T14:17:31.231Z,18.25
2024-03-01T14:19:33.228Z,19.73
2024-03-01T14:21:35.070Z,19.30
2024-03-01T14:23:38.417Z,19.42
2024-03-01T14:25:40.262Z,19.98
2024-03-01T14:27:45.659Z,19.92
2024-03-01T14:29:47.488Z,19.35
2024-03-01T14:32:16.063Z,20.23
2024-03-01T14:34:19.710Z,19.98
2024-03-01T14:36:21.540Z,20.67
2024-03-01T14:38:23.625Z,19.63
2024-03-01T14:40:28.033Z,18.95
2024-03-01T14:42:29.991Z,19.85
2024-03-01T14:44:31.882Z,19.27
2024-03-01T14:46:44.477Z,21.48
2024-03-01T14:48:48.059Z,19.65
2024-03-01T14:50:58.575Z,19.60
2024-03-01T14:53:10.407Z,18.50
2024-03-01T14:55:12.806Z,20.15
2024-03-01T14:57:18.341Z,19.90
2024-03-01T14:59:20.767Z,20.08
2024-03-01T15:01:22.782Z,19.70
2024-03-01T15:03:29.235Z,20.77
2024-03-01T15:05:30.977Z,21.33
2024-03-01T15:07:32.900Z,19.90
2024-03-01T15:09:45.213Z,21.45
2024-03-01T15:11:47.155Z,20.55
2024-03-01T15:13:50.422Z,22.23
2024-03-01T15:15:52.288Z,22.30
2024-03-01T15:18:04.980Z,23.13
2024-03-01T15:20:08.123Z,23.23
2024-03-01T15:22:13.858Z,22.35
2024-03-01T15:24:20.105Z,23.20
2024-03-01T15:26:21.946Z,20.95
2024-03-01T15:28:23.747Z,23.75
2024-03-01T15:30:29.550Z,23.83
2024-03-01T15:32:31.474Z,23.13
2024-03-01T15:34:33.792Z,22.52
2024-03-01T15:36:35.879Z,23.08
2024-03-01T15:38:37.994Z,23.80
2024-03-01T15:40:40.030Z,22.75
2024-03-01T15:42:42.109Z,23.95
2024-03-01T15:44:43.987Z,25.23
2024-03-01T15:46:47.967Z,25.15
2024-03-01T15:48:49.981Z,25.15
2024-03-01T15:50:51.748Z,24.23
2024-03-01T15:52:56.051Z,24.40
2024-03-01T15:54:58.218Z,24.20
2024-03-01T15:57:00.136Z,25.17
2024-03-01T15:59:02.095Z,25.98
2024-03-01T16:01:09.255Z,24.85
2024-03-01T16:03:11.180Z,25.13
2024-03-01T16:05:14.313Z,24.70
2024-03-01T16:07:16.230Z,25.45
2024-03-01T16:09:18.033Z,25.98
2024-03-01T16:11:20.634Z,25.88
2024-03-01T16:13:34.019Z,24.85
2024-03-01T16:15:35.912Z,26.50
2024-03-01T16:17:37.772Z,25.05
2024-03-01T16:19:39.941Z,25.02
2024-03-01T16:21:41.761Z,26.65
2024-03-01T16:23:44.682Z,25.55
2024-03-01T16:25:46.610Z,26.60
2024-03-01T16:27:48.452Z,25.33
2024-03-01T16:29:50.679Z,25.60
2024-03-01T16:31:52.579Z,26.08
2024-03-01T16:33:54.502Z,27.83
2024-03-01T16:36:04.914Z,25.45
2024-03-01T16:38:07.409Z,26.65
2024-03-01T16:40:11.529Z,25.60
2024-03-01T16:42:28.490Z,27.42
2024-03-01T16:44:35.602Z,27.10
2024-03-01T16:46:38.498Z,28.17
2024-03-01T16:48:49.726Z,28.60
2024-03-01T16:50:51.826Z,27.83
2024-03-01T16:52:54.463Z,26.65
2024-03-01T16:54:56.307Z,25.83
2024-03-01T16:57:12.375Z,26.77
2024-03-01T16:59:14.593Z,25.75
2024-03-01T17:01:44.779Z,27.33
2024-03-01T17:03:46.616Z,25.63
2024-03-01T17:05:48.577Z,25.75
2024-03-01T17:07:51.965Z,26.52
2024-03-01T17:09:54.233Z,26.40
2024-03-01T17:11:59.338Z,24.60
2024-03-01T17:14:01.646Z,25.75
2024-03-01T17:16:06.263Z,25.55
2024-03-01T17:18:12.621Z,25.67
2024-03-01T17:20:20.398Z,26.45
2024-03-01T17:22:22.320Z,26.02
2024-03-01T17:24:24.173Z,25.13
2024-03-01T17:26:26.077Z,25.23
2024-03-01T17:28:28.019Z,24.33
2024-03-01T17:30:29.751Z,24.25
2024-03-01T17:32:31.527Z,25.90
2024-03-01T17:34:33.387Z,25.75
2024-03-01T17:36:35.200Z,24.65
2024-03-01T17:38:37.289Z,26.13
2024-03-01T17:40:39.340Z,25.60
2024-03-01T17:42:41.784Z,26.15
2024-03-01T17:44:43.909Z,26.45
2024-03-01T17:46:45.975Z,26.85
2024-03-01T17:48:47.926Z,27.10
2024-03-01T17:50:50.198Z,27.67
2024-03-01T17:52:52.089Z,26.02
2024-03-01T17:54:54.622Z,25.48
2024-03-01T17:56:56.503Z,27.08
2024-03-01T17:58:58.344Z,27.35
2024-03-01T18:01:00.281Z,27.75
2024-03-01T18:03:02.436Z,27.13
2024-03-01T18:05:04.718Z,27.63
2024-03-01T18:07:07.148Z,33.22
2024-03-01T18:09:08.891Z,27.80
2024-03-01T18:11:10.807Z,27.80
2024-03-01T18:13:12.773Z,26.02
2024-03-01T18:15:15.079Z,24.77
2024-03-01T18:17:16.940Z,25.50
2024-03-01T18:19:19.961Z,26.63
2024-03-01T18:21:21.699Z,26.42
2024-03-01T18:23:26.363Z,27.88
2024-03-01T18:25:28.900Z,27.70
2024-03-01T18:27:30.683Z,27.38
2024-03-01T18:29:32.816Z,28.73
2024-03-01T18:31:34.720Z,25.88
2024-03-01T18:33:36.750Z,27.83
2024-03-01T18:35:38.561Z,26.27
2024-03-01T18:37:40.938Z,26.90
2024-03-01T18:39:42.862Z,27.30
2024-03-01T18:41:44.746Z,28.42
2024-03-01T18:43:46.649Z,28.60
2024-03-01T18:45:48.424Z,30.70
2024-03-01T18:47:50.289Z,27.27
2024-03-01T18:49:52.183Z,26.48
2024-03-01T18:51:56.721Z,26.08
2024-03-01T18:53:59.882Z,26.63
2024-03-01T18:56:03.564Z,25.25
2024-03-01T18:58:05.500Z,25.95
2024-03-01T19:00:08.549Z,26.42
2024-03-01T19:02:13.937Z,26.02
2024-03-01T19:04:15.984Z,26.45
2024-03-01T19:06:17.777Z,27.55
2024-03-01T19:08:19.606Z,27.08
2024-03-01T19:10:21.652Z,29.83
2024-03-01T19:12:24.976Z,29.05
2024-03-01T19:14:26.937Z,31.40
2024-03-01T19:16:32.563Z,28.17
2024-03-01T19:18:34.793Z,28.50
2024-03-01T19:20:36.705Z,28.38
2024-03-01T19:22:38.516Z,26.63
2024-03-01T19:24:40.360Z,28.75
2024-03-01T19:26:42.282Z,28.13
2024-03-01T19:28:44.083Z,26.48
2024-03-01T19:30:46.034Z,27.70
2024-03-01T19:32:48.114Z,28.13
2024-03-01T19:34:50.470Z,27.90
2024-03-01T19:36:52.630Z,26.80
2024-03-01T19:38:54.560Z,27.80
2024-03-01T19:40:56.455Z,28.20
2024-03-01T19:42:58.245Z,28.42
2024-03-01T19:45:00.030Z,28.92
2024-03-01T19:47:03.698Z,27.90
2024-03-01T19:49:05.639Z,28.30
2024-03-01T19:51:07.553Z,27.88
2024-03-01T19:53:09.465Z,28.48
2024-03-01T19:55:11.288Z,27.98
2024-03-01T19:57:13.216Z,28.67
2024-03-01T19:59:14.922Z,29.35
2024-03-01T20:01:16.893Z,28.67
2024-03-01T20:03:20.372Z,28.17
2024-03-01T20:05:22.305Z,27.90
2024-03-01T20:07:24.377Z,27.65
2024-03-01T20:09:26.948Z,28.20
2024-03-01T20:11:28.772Z,26.15
2024-03-01T20:13:30.533Z,27.48
2024-03-01T20:15:32.406Z,26.02
2024-03-01T20:17:34.273Z,27.00
2024-03-01T20:19:36.186Z,26.38
2024-03-01T20:21:38.000Z,26.90
2024-03-01T20:23:45.910Z,25.50
2024-03-01T20:25:51.593Z,24.88
2024-03-01T20:27:53.658Z,23.65
2024-03-01T20:29:55.549Z,24.50
2024-03-01T20:31:57.703Z,23.95
2024-03-01T20:33:59.833Z,23.55
2024-03-01T20:36:01.720Z,22.77
2024-03-01T20:38:04.955Z,21.27
2024-03-01T20:40:08.278Z,21.88
2024-03-01T20:42:11.276Z,21.17
2024-03-01T20:44:13.133Z,20.50
2024-03-01T20:46:14.991Z,20.20
2024-03-01T20:48:17.027Z,20.33
2024-03-01T20:50:20.685Z,21.42
2024-03-01T20:52:22.464Z,19.98
2024-03-01T20:54:24.633Z,20.13
2024-03-01T20:56:26.565Z,19.92
2024-03-01T20:58:28.383Z,19.70
2024-03-01T21:00:31.216Z,20.48
2024-03-01T21:02:34.027Z,21.70
2024-03-01T21:04:35.932Z,21.08
2024-03-01T21:06:37.755Z,21.67
2024-03-01T21:08:39.630Z,22.20
2024-03-01T21:10:41.484Z,22.33
2024-03-01T21:12:43.515Z,22.35
2024-03-01T21:14:45.411Z,23.05
2024-03-01T21:16:47.293Z,24.98
2024-03-01T21:18:49.501Z,24.13
2024-03-01T21:20:51.436Z,24.35
2024-03-01T21:22:54.414Z,24.88
2024-03-01T21:24:56.472Z,27.75
2024-03-01T21:26:58.401Z,26.92
2024-03-01T21:29:00.826Z,26.75
2024-03-01T21:31:03.203Z,25.13
2024-03-01T21:33:07.520Z,24.95
2024-03-01T21:35:09.497Z,26.33
2024-03-01T21:37:11.911Z,24.80
2024-03-01T21:39:15.386Z,25.02
2024-03-01T21:41:17.794Z,24.67
2024-03-01T21:43:19.593Z,23.60
2024-03-01T21:45:21.966Z,24.05
2024-03-01T21:47:25.317Z,24.90
2024-03-01T21:49:27.055Z,24.00
2024-03-01T21:51:28.907Z,25.42
2024-03-01T21:53:30.739Z,24.63
2024-03-01T21:55:32.701Z,24.80
2024-03-01T21:57:35.545Z,25.80
2024-03-01T21:59:37.364Z,26.38
2024-03-01T22:01:39.819Z,26.00
2024-03-01T22:03:41.754Z,25.55
2024-03-01T22:05:45.812Z,24.42
2024-03-01T22:07:51.330Z,25.02
2024-03-01T22:09:53.919Z,25.10
2024-03-01T22:11:55.717Z,24.02
2024-03-01T22:13:58.116Z,25.23
2024-03-01T22:16:00.046Z,23.83
2024-03-01T22:18:02.119Z,23.90
2024-03-01T22:20:04.708Z,23.80
2024-03-01T22:22:06.516Z,24.90
2024-03-01T22:24:08.762Z,24.85
2024-03-01T22:26:10.757Z,25.25
2024-03-01T22:28:13.497Z,25.60
2024-03-01T22:30:15.312Z,25.95
2024-03-01T22:32:17.901Z,25.33
2024-03-01T22:34:19.857Z,26.05
2024-03-01T22:36:21.724Z,24.85
2024-03-01T22:38:23.511Z,25.27
2024-03-01T22:40:25.410Z,26.10
2024-03-01T22:42:27.153Z,24.83
2024-03-01T22:44:28.946Z,25.55
2024-03-01T22:46:31.012Z,26.55
2024-03-01T22:48:33.528Z,25.90
2024-03-01T22:50:35.372Z,25.08
2024-03-01T22:52:38.342Z,26.90
2024-03-01T22:54:40.252Z,26.40
2024-03-01T22:56:43.859Z,26.25
2024-03-01T22:58:47.141Z,27.02
2024-03-01T23:00:50.325Z,25.48
2024-03-01T23:02:54.879Z,24.45
2024-03-01T23:04:56.956Z,24.58
2024-03-01T23:07:05.308Z,23.42
2024-03-01T23:09:12.590Z,23.55
2024-03-01T23:11:39.960Z,24.20
2024-03-01T23:13:42.013Z,23.67
2024-03-01T23:15:50.280Z,22.40
2024-03-01T23:17:52.815Z,23.98
2024-03-01T23:19:55.884Z,22.85
2024-03-01T23:21:57.917Z,21.55
2024-03-01T23:23:59.845Z,21.45
2024-03-01T23:26:01.684Z,22.27
2024-03-01T23:28:04.335Z,21.20
2024-03-01T23:30:08.365Z,21.15
2024-03-01T23:32:10.847Z,20.42
2024-03-01T23:34:12.652Z,21.55
2024-03-01T23:36:15.220Z,21.20
2024-03-01T23:38:17.248Z,22.77
2024-03-01T23:40:19.078Z,20.55
2024-03-01T23:42:20.995Z,19.98
2024-03-01T23:44:23.813Z,21.23
2024-03-01T23:46:25.543Z,21.60
2024-03-01T23:48:27.526Z,21.58
2024-03-01T23:50:29.339Z,20.92
2024-03-01T23:52:31.129Z,20.90
2024-03-01T23:54:33.247Z,20.58
2024-03-01T23:56:35.003Z,21.45
2024-03-01T23:58:41.127Z,22.75
